Accueil
METAR-TAF:

METAR-TAF

Aéroports :

Aéroport de Bruxelles. Zaventem

Bruxelles, Belgique

latitude: 50-54N, longitude: 004-32E, altitude: 55 m

Observation

Le bulletin a été fait il y a 36 minutes, à 04:50 UTC
Vent 3 kt de est/nord-est
Température 12°C
Humidité 88%
Pression 1018 hPa
Visibilité 10 km ou plus
Nuages épars à une hauteur de 3400 ft

METAR: EBBR 200450Z 06003KT 9999 SCT034 12/10 Q1018 NOSIG

Heure: 07:26 (05:26 UTC)

Prévision

Le bulletin a été fait il y a 6 heures et 21 minutes, à 23:05 UTC
Prévision valable du 20 à 00 UTC au 21 à 06 UTC
Vent 5 kt de est/nord-est
Visibilité 10 km ou plus
Nuages épars à une hauteur de 4500 ft

TAF: EBBR 192305Z 2000/2106 07005KT 9999 SCT045

Observations et prévisions météorologiques de plus de 4000 aéroports (messages METAR et TAF).

Les stations disponibles sont représentées par des disques jaunes et rouges sur la carte.

Passer la souris dessus pour voir le nom de la station.

Cliquer dessus pour voir les observations et prévisions météorologiques.

Pour changer de carte: cliquez sur les boutons verts avec une croix noire pour zoomer, sur le bouton vert avec un tiret pour effectuer un zoom arrière, ou sur les flèches vertes pour les cartes adjacentes.


METAR-TAF: